sensor_id;sensor_type;location;lat;lon;timestamp;P1;durP1;ratioP1;P2;durP2;ratioP2
9888;SDS011;4983;42.112;24.738;2023-05-10T00:01:29;4.63;;;3.53;;
9888;SDS011;4983;42.112;24.738;2023-05-10T00:03:56;4.53;;;3.50;;
9888;SDS011;4983;42.112;24.738;2023-05-10T00:06:23;3.50;;;3.20;;
9888;SDS011;4983;42.112;24.738;2023-05-10T00:08:51;4.37;;;3.20;;
9888;SDS011;4983;42.112;24.738;2023-05-10T00:11:18;5.60;;;3.67;;
9888;SDS011;4983;42.112;24.738;2023-05-10T00:13:46;5.67;;;3.57;;
9888;SDS011;4983;42.112;24.738;2023-05-10T00:16:13;4.27;;;3.30;;
9888;SDS011;4983;42.112;24.738;2023-05-10T00:18:41;4.13;;;3.50;;
9888;SDS011;4983;42.112;24.738;2023-05-10T00:21:07;4.60;;;3.27;;
9888;SDS011;4983;42.112;24.738;2023-05-10T00:23:36;5.57;;;3.47;;
9888;SDS011;4983;42.112;24.738;2023-05-10T00:26:04;4.63;;;3.40;;
9888;SDS011;4983;42.112;24.738;2023-05-10T00:28:30;3.77;;;3.10;;
9888;SDS011;4983;42.112;24.738;2023-05-10T00:30:57;5.87;;;3.80;;
9888;SDS011;4983;42.112;24.738;2023-05-10T00:33:24;4.90;;;3.23;;
9888;SDS011;4983;42.112;24.738;2023-05-10T00:35:50;6.43;;;4.40;;
9888;SDS011;4983;42.112;24.738;2023-05-10T00:38:18;7.03;;;4.33;;
9888;SDS011;4983;42.112;24.738;2023-05-10T00:40:45;6.10;;;4.53;;
9888;SDS011;4983;42.112;24.738;2023-05-10T00:43:13;5.63;;;4.90;;
9888;SDS011;4983;42.112;24.738;2023-05-10T00:45:40;5.63;;;4.77;;
9888;SDS011;4983;42.112;24.738;2023-05-10T00:48:08;5.70;;;4.60;;
9888;SDS011;4983;42.112;24.738;2023-05-10T00:50:34;5.97;;;4.13;;
9888;SDS011;4983;42.112;24.738;2023-05-10T00:53:01;4.77;;;3.67;;
9888;SDS011;4983;42.112;24.738;2023-05-10T00:55:28;4.37;;;3.60;;
9888;SDS011;4983;42.112;24.738;2023-05-10T00:57:56;3.80;;;3.10;;
9888;SDS011;4983;42.112;24.738;2023-05-10T01:00:24;4.07;;;2.70;;
9888;SDS011;4983;42.112;24.738;2023-05-10T01:02:52;3.77;;;2.87;;
9888;SDS011;4983;42.112;24.738;2023-05-10T01:05:21;3.93;;;3.23;;
9888;SDS011;4983;42.112;24.738;2023-05-10T01:07:47;4.70;;;3.10;;
9888;SDS011;4983;42.112;24.738;2023-05-10T01:10:14;5.67;;;3.30;;
9888;SDS011;4983;42.112;24.738;2023-05-10T01:12:42;7.27;;;3.77;;
9888;SDS011;4983;42.112;24.738;2023-05-10T01:15:09;5.50;;;3.63;;
9888;SDS011;4983;42.112;24.738;2023-05-10T01:17:39;7.27;;;3.80;;
9888;SDS011;4983;42.112;24.738;2023-05-10T01:20:07;6.90;;;4.17;;
9888;SDS011;4983;42.112;24.738;2023-05-10T01:22:39;5.37;;;3.07;;
9888;SDS011;4983;42.112;24.738;2023-05-10T01:25:18;6.10;;;3.20;;
9888;SDS011;4983;42.112;24.738;2023-05-10T01:27:53;4.27;;;3.03;;
9888;SDS011;4983;42.112;24.738;2023-05-10T01:33:11;4.17;;;3.07;;
9888;SDS011;4983;42.112;24.738;2023-05-10T01:35:43;4.13;;;2.73;;
9888;SDS011;4983;42.112;24.738;2023-05-10T01:38:14;4.90;;;3.13;;
9888;SDS011;4983;42.112;24.738;2023-05-10T01:40:42;4.23;;;2.97;;
9888;SDS011;4983;42.112;24.738;2023-05-10T01:43:17;4.93;;;3.10;;
9888;SDS011;4983;42.112;24.738;2023-05-10T01:45:47;5.07;;;3.23;;
9888;SDS011;4983;42.112;24.738;2023-05-10T01:48:17;5.83;;;3.80;;
9888;SDS011;4983;42.112;24.738;2023-05-10T01:50:45;7.37;;;3.67;;
9888;SDS011;4983;42.112;24.738;2023-05-10T01:53:12;5.00;;;3.90;;
9888;SDS011;4983;42.112;24.738;2023-05-10T01:55:41;10.63;;;4.63;;
9888;SDS011;4983;42.112;24.738;2023-05-10T01:58:10;5.47;;;4.00;;
9888;SDS011;4983;42.112;24.738;2023-05-10T02:00:40;6.87;;;4.87;;
9888;SDS011;4983;42.112;24.738;2023-05-10T02:03:08;7.50;;;5.17;;
9888;SDS011;4983;42.112;24.738;2023-05-10T02:05:36;6.67;;;4.53;;
9888;SDS011;4983;42.112;24.738;2023-05-10T02:08:05;7.97;;;4.23;;
9888;SDS011;4983;42.112;24.738;2023-05-10T02:10:32;6.10;;;3.60;;
9888;SDS011;4983;42.112;24.738;2023-05-10T02:12:58;3.83;;;3.07;;
9888;SDS011;4983;42.112;24.738;2023-05-10T02:15:26;6.13;;;3.47;;
9888;SDS011;4983;42.112;24.738;2023-05-10T02:17:54;4.40;;;3.77;;
9888;SDS011;4983;42.112;24.738;2023-05-10T02:20:21;5.03;;;3.57;;
9888;SDS011;4983;42.112;24.738;2023-05-10T02:22:50;4.80;;;3.40;;
9888;SDS011;4983;42.112;24.738;2023-05-10T02:25:18;6.83;;;3.40;;
9888;SDS011;4983;42.112;24.738;2023-05-10T02:27:46;5.27;;;3.77;;
9888;SDS011;4983;42.112;24.738;2023-05-10T02:30:13;4.77;;;3.30;;
9888;SDS011;4983;42.112;24.738;2023-05-10T02:32:41;5.60;;;3.80;;
9888;SDS011;4983;42.112;24.738;2023-05-10T02:35:08;7.23;;;3.67;;
9888;SDS011;4983;42.112;24.738;2023-05-10T02:37:36;5.67;;;3.33;;
9888;SDS011;4983;42.112;24.738;2023-05-10T02:40:05;4.77;;;3.37;;
9888;SDS011;4983;42.112;24.738;2023-05-10T02:42:33;5.50;;;3.57;;
9888;SDS011;4983;42.112;24.738;2023-05-10T02:45:01;4.97;;;3.77;;
9888;SDS011;4983;42.112;24.738;2023-05-10T02:47:29;6.47;;;3.77;;
9888;SDS011;4983;42.112;24.738;2023-05-10T02:49:56;5.43;;;4.17;;
9888;SDS011;4983;42.112;24.738;2023-05-10T02:52:25;6.57;;;3.93;;
9888;SDS011;4983;42.112;24.738;2023-05-10T02:54:54;5.47;;;3.97;;
9888;SDS011;4983;42.112;24.738;2023-05-10T02:57:25;5.83;;;4.37;;
9888;SDS011;4983;42.112;24.738;2023-05-10T02:59:52;6.43;;;4.07;;
9888;SDS011;4983;42.112;24.738;2023-05-10T03:02:19;4.80;;;3.90;;
9888;SDS011;4983;42.112;24.738;2023-05-10T03:04:46;4.83;;;3.80;;
9888;SDS011;4983;42.112;24.738;2023-05-10T03:07:13;5.33;;;4.03;;
9888;SDS011;4983;42.112;24.738;2023-05-10T03:09:39;4.93;;;4.00;;
9888;SDS011;4983;42.112;24.738;2023-05-10T03:12:07;5.77;;;4.17;;
9888;SDS011;4983;42.112;24.738;2023-05-10T03:14:42;4.67;;;3.87;;
9888;SDS011;4983;42.112;24.738;2023-05-10T03:17:15;4.30;;;3.43;;
9888;SDS011;4983;42.112;24.738;2023-05-10T03:19:43;6.63;;;3.90;;
9888;SDS011;4983;42.112;24.738;2023-05-10T03:22:13;8.13;;;3.93;;
9888;SDS011;4983;42.112;24.738;2023-05-10T03:24:42;3.77;;;3.33;;
9888;SDS011;4983;42.112;24.738;2023-05-10T03:27:09;6.80;;;3.80;;
9888;SDS011;4983;42.112;24.738;2023-05-10T03:29:36;4.60;;;3.57;;
9888;SDS011;4983;42.112;24.738;2023-05-10T03:32:05;6.13;;;3.67;;
9888;SDS011;4983;42.112;24.738;2023-05-10T03:34:32;4.30;;;3.20;;
9888;SDS011;4983;42.112;24.738;2023-05-10T03:36:59;4.10;;;2.90;;
9888;SDS011;4983;42.112;24.738;2023-05-10T03:39:26;4.77;;;3.23;;
9888;SDS011;4983;42.112;24.738;2023-05-10T03:41:52;6.03;;;3.53;;
9888;SDS011;4983;42.112;24.738;2023-05-10T03:44:19;7.37;;;4.20;;
9888;SDS011;4983;42.112;24.738;2023-05-10T03:46:45;6.93;;;4.00;;
9888;SDS011;4983;42.112;24.738;2023-05-10T03:49:13;5.43;;;3.90;;
9888;SDS011;4983;42.112;24.738;2023-05-10T03:51:40;8.43;;;4.13;;
9888;SDS011;4983;42.112;24.738;2023-05-10T03:54:07;5.27;;;4.07;;
9888;SDS011;4983;42.112;24.738;2023-05-10T03:56:34;8.37;;;4.57;;
9888;SDS011;4983;42.112;24.738;2023-05-10T03:59:01;7.70;;;5.00;;
9888;SDS011;4983;42.112;24.738;2023-05-10T04:01:32;5.57;;;4.23;;
9888;SDS011;4983;42.112;24.738;2023-05-10T04:03:59;7.00;;;4.20;;
9888;SDS011;4983;42.112;24.738;2023-05-10T04:06:27;9.03;;;4.43;;
9888;SDS011;4983;42.112;24.738;2023-05-10T04:08:54;8.47;;;4.80;;
9888;SDS011;4983;42.112;24.738;2023-05-10T04:11:21;11.33;;;4.90;;
9888;SDS011;4983;42.112;24.738;2023-05-10T04:13:48;10.10;;;4.13;;
9888;SDS011;4983;42.112;24.738;2023-05-10T04:16:15;6.77;;;4.30;;
9888;SDS011;4983;42.112;24.738;2023-05-10T04:18:41;8.40;;;4.23;;
9888;SDS011;4983;42.112;24.738;2023-05-10T04:21:11;7.03;;;4.03;;
9888;SDS011;4983;42.112;24.738;2023-05-10T04:23:39;6.87;;;4.23;;
9888;SDS011;4983;42.112;24.738;2023-05-10T04:26:05;7.27;;;3.97;;
9888;SDS011;4983;42.112;24.738;2023-05-10T04:28:32;5.87;;;3.67;;
9888;SDS011;4983;42.112;24.738;2023-05-10T04:31:02;3.47;;;3.00;;
9888;SDS011;4983;42.112;24.738;2023-05-10T04:33:29;5.73;;;2.93;;
9888;SDS011;4983;42.112;24.738;2023-05-10T04:35:55;4.43;;;3.20;;
9888;SDS011;4983;42.112;24.738;2023-05-10T04:38:23;4.43;;;3.40;;
9888;SDS011;4983;42.112;24.738;2023-05-10T04:40:51;10.03;;;7.20;;
9888;SDS011;4983;42.112;24.738;2023-05-10T04:43:19;4.70;;;3.90;;
9888;SDS011;4983;42.112;24.738;2023-05-10T04:45:46;7.17;;;3.70;;
9888;SDS011;4983;42.112;24.738;2023-05-10T04:48:12;4.70;;;3.27;;
9888;SDS011;4983;42.112;24.738;2023-05-10T04:50:39;6.13;;;4.00;;
9888;SDS011;4983;42.112;24.738;2023-05-10T04:53:06;5.90;;;4.20;;
9888;SDS011;4983;42.112;24.738;2023-05-10T04:55:33;6.20;;;4.00;;
9888;SDS011;4983;42.112;24.738;2023-05-10T04:58:01;5.80;;;3.97;;
9888;SDS011;4983;42.112;24.738;2023-05-10T05:00:29;9.03;;;3.77;;
9888;SDS011;4983;42.112;24.738;2023-05-10T05:02:55;3.57;;;2.97;;
9888;SDS011;4983;42.112;24.738;2023-05-10T05:05:22;5.50;;;3.93;;
9888;SDS011;4983;42.112;24.738;2023-05-10T05:07:50;6.07;;;4.30;;
9888;SDS011;4983;42.112;24.738;2023-05-10T05:10:17;5.57;;;3.73;;
9888;SDS011;4983;42.112;24.738;2023-05-10T05:12:44;5.03;;;3.63;;
9888;SDS011;4983;42.112;24.738;2023-05-10T05:15:12;3.20;;;2.77;;
9888;SDS011;4983;42.112;24.738;2023-05-10T05:17:38;4.10;;;3.13;;
9888;SDS011;4983;42.112;24.738;2023-05-10T05:20:05;5.17;;;3.33;;
9888;SDS011;4983;42.112;24.738;2023-05-10T05:22:33;4.30;;;3.00;;
9888;SDS011;4983;42.112;24.738;2023-05-10T05:25:00;4.27;;;2.83;;
9888;SDS011;4983;42.112;24.738;2023-05-10T05:27:27;5.20;;;2.80;;
9888;SDS011;4983;42.112;24.738;2023-05-10T05:29:54;3.73;;;3.00;;
9888;SDS011;4983;42.112;24.738;2023-05-10T05:32:22;4.70;;;3.10;;
9888;SDS011;4983;42.112;24.738;2023-05-10T05:34:49;4.03;;;2.80;;
9888;SDS011;4983;42.112;24.738;2023-05-10T05:37:16;5.80;;;2.80;;
9888;SDS011;4983;42.112;24.738;2023-05-10T05:39:43;3.30;;;2.93;;
9888;SDS011;4983;42.112;24.738;2023-05-10T05:42:12;3.47;;;2.67;;
9888;SDS011;4983;42.112;24.738;2023-05-10T05:44:41;4.00;;;3.10;;
9888;SDS011;4983;42.112;24.738;2023-05-10T05:47:07;5.63;;;2.83;;
9888;SDS011;4983;42.112;24.738;2023-05-10T05:49:36;2.57;;;2.33;;
9888;SDS011;4983;42.112;24.738;2023-05-10T05:52:03;4.93;;;3.27;;
9888;SDS011;4983;42.112;24.738;2023-05-10T05:54:30;4.27;;;3.23;;
9888;SDS011;4983;42.112;24.738;2023-05-10T05:56:57;3.83;;;3.20;;
9888;SDS011;4983;42.112;24.738;2023-05-10T05:59:25;4.73;;;2.87;;
9888;SDS011;4983;42.112;24.738;2023-05-10T06:01:52;4.97;;;2.77;;
9888;SDS011;4983;42.112;24.738;2023-05-10T06:04:19;3.90;;;3.10;;
9888;SDS011;4983;42.112;24.738;2023-05-10T06:06:47;3.87;;;3.03;;
9888;SDS011;4983;42.112;24.738;2023-05-10T06:09:13;5.83;;;3.33;;
9888;SDS011;4983;42.112;24.738;2023-05-10T06:11:41;2.87;;;2.57;;
9888;SDS011;4983;42.112;24.738;2023-05-10T06:14:08;3.00;;;2.70;;
9888;SDS011;4983;42.112;24.738;2023-05-10T06:16:34;3.67;;;2.90;;
9888;SDS011;4983;42.112;24.738;2023-05-10T06:19:01;5.60;;;3.37;;
9888;SDS011;4983;42.112;24.738;2023-05-10T06:21:28;6.03;;;3.27;;
9888;SDS011;4983;42.112;24.738;2023-05-10T06:23:56;4.77;;;2.77;;
9888;SDS011;4983;42.112;24.738;2023-05-10T06:26:24;3.23;;;2.70;;
9888;SDS011;4983;42.112;24.738;2023-05-10T06:28:52;3.27;;;2.93;;
9888;SDS011;4983;42.112;24.738;2023-05-10T06:31:19;3.43;;;2.80;;
9888;SDS011;4983;42.112;24.738;2023-05-10T06:33:46;4.60;;;2.90;;
9888;SDS011;4983;42.112;24.738;2023-05-10T06:36:13;5.40;;;3.10;;
9888;SDS011;4983;42.112;24.738;2023-05-10T06:38:40;3.43;;;3.13;;
9888;SDS011;4983;42.112;24.738;2023-05-10T06:41:10;5.57;;;3.00;;
9888;SDS011;4983;42.112;24.738;2023-05-10T06:43:37;3.63;;;3.07;;
9888;SDS011;4983;42.112;24.738;2023-05-10T06:46:06;3.63;;;3.03;;
9888;SDS011;4983;42.112;24.738;2023-05-10T06:48:33;3.73;;;3.03;;
9888;SDS011;4983;42.112;24.738;2023-05-10T06:51:00;5.27;;;3.27;;
9888;SDS011;4983;42.112;24.738;2023-05-10T06:53:27;3.63;;;2.90;;
9888;SDS011;4983;42.112;24.738;2023-05-10T06:55:53;3.60;;;3.00;;
9888;SDS011;4983;42.112;24.738;2023-05-10T06:58:21;3.20;;;2.90;;
9888;SDS011;4983;42.112;24.738;2023-05-10T07:00:48;3.67;;;2.87;;
9888;SDS011;4983;42.112;24.738;2023-05-10T07:03:15;6.23;;;3.67;;
9888;SDS011;4983;42.112;24.738;2023-05-10T07:05:41;3.30;;;2.70;;
9888;SDS011;4983;42.112;24.738;2023-05-10T07:08:08;3.13;;;2.60;;
9888;SDS011;4983;42.112;24.738;2023-05-10T07:10:35;3.77;;;2.80;;
9888;SDS011;4983;42.112;24.738;2023-05-10T07:13:02;5.77;;;2.77;;
9888;SDS011;4983;42.112;24.738;2023-05-10T07:15:30;3.13;;;2.40;;
9888;SDS011;4983;42.112;24.738;2023-05-10T07:17:56;4.93;;;2.93;;
9888;SDS011;4983;42.112;24.738;2023-05-10T07:20:24;4.33;;;2.37;;
9888;SDS011;4983;42.112;24.738;2023-05-10T07:22:51;3.30;;;2.60;;
9888;SDS011;4983;42.112;24.738;2023-05-10T07:25:17;5.63;;;2.70;;
9888;SDS011;4983;42.112;24.738;2023-05-10T07:27:44;2.63;;;2.40;;
9888;SDS011;4983;42.112;24.738;2023-05-10T07:30:13;7.90;;;2.30;;
9888;SDS011;4983;42.112;24.738;2023-05-10T07:32:42;5.10;;;2.80;;
9888;SDS011;4983;42.112;24.738;2023-05-10T07:35:09;3.27;;;2.50;;
9888;SDS011;4983;42.112;24.738;2023-05-10T07:37:35;3.67;;;2.33;;
9888;SDS011;4983;42.112;24.738;2023-05-10T07:40:02;3.10;;;2.40;;
9888;SDS011;4983;42.112;24.738;2023-05-10T07:42:29;4.50;;;2.50;;
9888;SDS011;4983;42.112;24.738;2023-05-10T07:44:56;3.47;;;2.40;;
9888;SDS011;4983;42.112;24.738;2023-05-10T07:47:23;3.67;;;2.47;;
9888;SDS011;4983;42.112;24.738;2023-05-10T07:49:51;3.67;;;2.43;;
9888;SDS011;4983;42.112;24.738;2023-05-10T07:52:18;4.07;;;3.15;;
9888;SDS011;4983;42.112;24.738;2023-05-10T07:54:45;3.23;;;2.60;;
9888;SDS011;4983;42.112;24.738;2023-05-10T07:57:11;2.83;;;2.40;;
9888;SDS011;4983;42.112;24.738;2023-05-10T07:59:39;6.17;;;2.60;;
9888;SDS011;4983;42.112;24.738;2023-05-10T08:02:06;2.80;;;2.40;;
9888;SDS011;4983;42.112;24.738;2023-05-10T08:04:33;2.77;;;2.47;;
9888;SDS011;4983;42.112;24.738;2023-05-10T08:07:02;3.47;;;2.33;;
9888;SDS011;4983;42.112;24.738;2023-05-10T08:09:29;4.27;;;2.20;;
9888;SDS011;4983;42.112;24.738;2023-05-10T08:11:55;3.50;;;2.50;;
9888;SDS011;4983;42.112;24.738;2023-05-10T08:14:24;3.27;;;2.20;;
9888;SDS011;4983;42.112;24.738;2023-05-10T08:16:51;3.17;;;2.37;;
9888;SDS011;4983;42.112;24.738;2023-05-10T08:19:18;2.83;;;2.20;;
9888;SDS011;4983;42.112;24.738;2023-05-10T08:21:46;5.83;;;2.00;;
9888;SDS011;4983;42.112;24.738;2023-05-10T08:24:14;2.37;;;2.10;;
9888;SDS011;4983;42.112;24.738;2023-05-10T08:26:41;2.90;;;2.33;;
9888;SDS011;4983;42.112;24.738;2023-05-10T08:29:08;4.60;;;2.40;;
9888;SDS011;4983;42.112;24.738;2023-05-10T08:31:35;4.10;;;2.23;;
9888;SDS011;4983;42.112;24.738;2023-05-10T08:34:02;2.53;;;2.00;;
9888;SDS011;4983;42.112;24.738;2023-05-10T08:36:29;4.87;;;2.23;;
9888;SDS011;4983;42.112;24.738;2023-05-10T08:38:57;3.30;;;2.20;;
9888;SDS011;4983;42.112;24.738;2023-05-10T08:41:25;3.23;;;2.23;;
9888;SDS011;4983;42.112;24.738;2023-05-10T08:43:53;2.47;;;2.27;;
9888;SDS011;4983;42.112;24.738;2023-05-10T08:46:21;3.43;;;2.20;;
9888;SDS011;4983;42.112;24.738;2023-05-10T08:48:49;3.53;;;2.33;;
9888;SDS011;4983;42.112;24.738;2023-05-10T08:51:17;5.17;;;2.47;;
9888;SDS011;4983;42.112;24.738;2023-05-10T08:53:45;4.53;;;2.20;;
9888;SDS011;4983;42.112;24.738;2023-05-10T08:56:12;3.33;;;2.40;;
9888;SDS011;4983;42.112;24.738;2023-05-10T08:58:42;3.47;;;2.50;;
9888;SDS011;4983;42.112;24.738;2023-05-10T09:01:09;2.97;;;2.37;;
9888;SDS011;4983;42.112;24.738;2023-05-10T09:03:37;5.57;;;2.43;;
9888;SDS011;4983;42.112;24.738;2023-05-10T09:06:05;4.63;;;2.90;;
9888;SDS011;4983;42.112;24.738;2023-05-10T09:08:33;4.28;;;2.70;;
9888;SDS011;4983;42.112;24.738;2023-05-10T09:11:00;10.07;;;3.47;;
9888;SDS011;4983;42.112;24.738;2023-05-10T09:13:27;2.60;;;2.33;;
9888;SDS011;4983;42.112;24.738;2023-05-10T09:15:56;5.27;;;2.60;;
9888;SDS011;4983;42.112;24.738;2023-05-10T09:18:23;3.00;;;2.47;;
9888;SDS011;4983;42.112;24.738;2023-05-10T09:20:50;2.97;;;2.30;;
9888;SDS011;4983;42.112;24.738;2023-05-10T09:23:17;2.70;;;2.20;;
9888;SDS011;4983;42.112;24.738;2023-05-10T09:25:45;2.27;;;2.07;;
9888;SDS011;4983;42.112;24.738;2023-05-10T09:28:12;4.17;;;2.20;;
9888;SDS011;4983;42.112;24.738;2023-05-10T09:30:40;4.43;;;2.30;;
9888;SDS011;4983;42.112;24.738;2023-05-10T09:33:12;3.70;;;2.60;;
9888;SDS011;4983;42.112;24.738;2023-05-10T09:35:38;2.87;;;2.33;;
9888;SDS011;4983;42.112;24.738;2023-05-10T09:38:05;3.73;;;2.43;;
9888;SDS011;4983;42.112;24.738;2023-05-10T09:40:32;4.90;;;2.70;;
9888;SDS011;4983;42.112;24.738;2023-05-10T09:42:59;3.50;;;2.20;;
9888;SDS011;4983;42.112;24.738;2023-05-10T09:45:27;3.97;;;2.50;;
9888;SDS011;4983;42.112;24.738;2023-05-10T09:47:54;4.60;;;2.40;;
9888;SDS011;4983;42.112;24.738;2023-05-10T09:50:23;2.93;;;2.20;;
9888;SDS011;4983;42.112;24.738;2023-05-10T09:52:51;2.83;;;2.10;;
9888;SDS011;4983;42.112;24.738;2023-05-10T09:55:19;4.17;;;2.00;;
9888;SDS011;4983;42.112;24.738;2023-05-10T09:57:46;2.00;;;1.80;;
9888;SDS011;4983;42.112;24.738;2023-05-10T10:00:16;3.93;;;2.70;;
9888;SDS011;4983;42.112;24.738;2023-05-10T10:02:46;5.13;;;2.83;;
9888;SDS011;4983;42.112;24.738;2023-05-10T10:05:13;4.07;;;3.17;;
9888;SDS011;4983;42.112;24.738;2023-05-10T10:07:42;3.03;;;2.77;;
9888;SDS011;4983;42.112;24.738;2023-05-10T10:10:09;3.23;;;2.60;;
9888;SDS011;4983;42.112;24.738;2023-05-10T10:12:40;3.33;;;2.77;;
9888;SDS011;4983;42.112;24.738;2023-05-10T10:15:08;3.07;;;2.77;;
9888;SDS011;4983;42.112;24.738;2023-05-10T10:17:35;4.23;;;2.97;;
9888;SDS011;4983;42.112;24.738;2023-05-10T10:20:02;5.33;;;2.70;;
9888;SDS011;4983;42.112;24.738;2023-05-10T10:22:29;2.50;;;2.30;;
9888;SDS011;4983;42.112;24.738;2023-05-10T10:24:58;3.00;;;2.17;;
9888;SDS011;4983;42.112;24.738;2023-05-10T10:27:26;2.43;;;2.23;;
9888;SDS011;4983;42.112;24.738;2023-05-10T10:29:59;4.40;;;2.57;;
9888;SDS011;4983;42.112;24.738;2023-05-10T10:32:29;2.70;;;2.30;;
9888;SDS011;4983;42.112;24.738;2023-05-10T10:34:56;3.00;;;2.80;;
9888;SDS011;4983;42.112;24.738;2023-05-10T10:37:23;3.00;;;2.70;;
9888;SDS011;4983;42.112;24.738;2023-05-10T10:39:50;3.10;;;2.67;;
9888;SDS011;4983;42.112;24.738;2023-05-10T10:45:12;3.83;;;2.60;;
9888;SDS011;4983;42.112;24.738;2023-05-10T10:47:38;3.90;;;2.63;;
9888;SDS011;4983;42.112;24.738;2023-05-10T10:50:05;3.50;;;2.77;;
9888;SDS011;4983;42.112;24.738;2023-05-10T10:52:33;3.27;;;2.60;;
9888;SDS011;4983;42.112;24.738;2023-05-10T10:55:01;7.17;;;3.03;;
9888;SDS011;4983;42.112;24.738;2023-05-10T10:57:28;2.60;;;2.40;;
9888;SDS011;4983;42.112;24.738;2023-05-10T11:02:44;2.90;;;2.37;;
9888;SDS011;4983;42.112;24.738;2023-05-10T11:05:23;3.23;;;2.93;;
9888;SDS011;4983;42.112;24.738;2023-05-10T11:07:53;2.70;;;2.50;;
9888;SDS011;4983;42.112;24.738;2023-05-10T11:10:20;2.73;;;2.53;;
9888;SDS011;4983;42.112;24.738;2023-05-10T11:12:51;2.83;;;2.53;;
9888;SDS011;4983;42.112;24.738;2023-05-10T11:15:17;2.97;;;2.20;;
9888;SDS011;4983;42.112;24.738;2023-05-10T11:17:46;2.57;;;2.30;;
9888;SDS011;4983;42.112;24.738;2023-05-10T11:20:18;2.53;;;2.33;;
9888;SDS011;4983;42.112;24.738;2023-05-10T11:22:50;3.03;;;2.43;;
9888;SDS011;4983;42.112;24.738;2023-05-10T11:25:17;3.87;;;2.90;;
9888;SDS011;4983;42.112;24.738;2023-05-10T11:27:46;3.97;;;2.83;;
9888;SDS011;4983;42.112;24.738;2023-05-10T11:30:13;2.80;;;2.60;;
9888;SDS011;4983;42.112;24.738;2023-05-10T11:32:40;7.80;;;2.87;;
9888;SDS011;4983;42.112;24.738;2023-05-10T11:35:09;3.97;;;2.37;;
9888;SDS011;4983;42.112;24.738;2023-05-10T11:37:36;3.73;;;2.63;;
9888;SDS011;4983;42.112;24.738;2023-05-10T11:40:04;2.40;;;2.20;;
9888;SDS011;4983;42.112;24.738;2023-05-10T11:42:31;6.37;;;3.17;;
9888;SDS011;4983;42.112;24.738;2023-05-10T11:45:00;3.07;;;2.50;;
9888;SDS011;4983;42.112;24.738;2023-05-10T11:47:27;3.17;;;2.77;;
9888;SDS011;4983;42.112;24.738;2023-05-10T11:49:53;2.93;;;2.63;;
9888;SDS011;4983;42.112;24.738;2023-05-10T11:52:21;5.33;;;3.30;;
9888;SDS011;4983;42.112;24.738;2023-05-10T11:54:50;3.03;;;2.70;;
9888;SDS011;4983;42.112;24.738;2023-05-10T11:57:17;4.57;;;3.10;;
9888;SDS011;4983;42.112;24.738;2023-05-10T11:59:44;3.90;;;3.23;;
9888;SDS011;4983;42.112;24.738;2023-05-10T12:02:12;5.70;;;2.97;;
9888;SDS011;4983;42.112;24.738;2023-05-10T12:04:39;3.10;;;2.80;;
9888;SDS011;4983;42.112;24.738;2023-05-10T12:07:06;7.57;;;3.30;;
9888;SDS011;4983;42.112;24.738;2023-05-10T12:09:34;2.83;;;2.40;;
9888;SDS011;4983;42.112;24.738;2023-05-10T12:12:01;3.17;;;2.80;;
9888;SDS011;4983;42.112;24.738;2023-05-10T12:14:28;3.47;;;3.17;;
9888;SDS011;4983;42.112;24.738;2023-05-10T12:16:58;4.47;;;4.07;;
9888;SDS011;4983;42.112;24.738;2023-05-10T12:19:25;3.50;;;3.20;;
9888;SDS011;4983;42.112;24.738;2023-05-10T12:21:51;4.37;;;3.57;;
9888;SDS011;4983;42.112;24.738;2023-05-10T12:24:18;8.07;;;3.27;;
9888;SDS011;4983;42.112;24.738;2023-05-10T12:26:49;3.40;;;3.03;;
9888;SDS011;4983;42.112;24.738;2023-05-10T12:29:17;3.30;;;3.00;;
9888;SDS011;4983;42.112;24.738;2023-05-10T12:31:53;12.63;;;4.10;;
9888;SDS011;4983;42.112;24.738;2023-05-10T12:34:24;5.03;;;2.97;;
9888;SDS011;4983;42.112;24.738;2023-05-10T12:36:51;4.57;;;3.10;;
9888;SDS011;4983;42.112;24.738;2023-05-10T12:39:19;4.70;;;3.43;;
9888;SDS011;4983;42.112;24.738;2023-05-10T12:41:46;3.47;;;3.17;;
9888;SDS011;4983;42.112;24.738;2023-05-10T12:44:15;5.10;;;3.33;;
9888;SDS011;4983;42.112;24.738;2023-05-10T12:46:42;6.40;;;3.50;;
9888;SDS011;4983;42.112;24.738;2023-05-10T12:49:09;5.50;;;3.73;;
9888;SDS011;4983;42.112;24.738;2023-05-10T12:51:35;4.53;;;4.00;;
9888;SDS011;4983;42.112;24.738;2023-05-10T12:54:05;4.30;;;3.87;;
9888;SDS011;4983;42.112;24.738;2023-05-10T12:56:31;9.03;;;4.20;;
9888;SDS011;4983;42.112;24.738;2023-05-10T12:58:58;4.33;;;3.73;;
9888;SDS011;4983;42.112;24.738;2023-05-10T13:01:27;7.77;;;4.20;;
9888;SDS011;4983;42.112;24.738;2023-05-10T13:03:55;3.43;;;3.13;;
9888;SDS011;4983;42.112;24.738;2023-05-10T13:06:22;3.67;;;3.37;;
9888;SDS011;4983;42.112;24.738;2023-05-10T13:08:49;4.10;;;3.63;;
9888;SDS011;4983;42.112;24.738;2023-05-10T13:11:18;3.60;;;3.17;;
9888;SDS011;4983;42.112;24.738;2023-05-10T13:13:45;3.53;;;3.23;;
9888;SDS011;4983;42.112;24.738;2023-05-10T13:16:11;3.60;;;3.30;;
9888;SDS011;4983;42.112;24.738;2023-05-10T13:18:41;3.33;;;3.03;;
9888;SDS011;4983;42.112;24.738;2023-05-10T13:21:07;3.60;;;3.10;;
9888;SDS011;4983;42.112;24.738;2023-05-10T13:23:35;3.60;;;3.03;;
9888;SDS011;4983;42.112;24.738;2023-05-10T13:26:02;3.50;;;3.20;;
9888;SDS011;4983;42.112;24.738;2023-05-10T13:28:28;3.60;;;3.17;;
9888;SDS011;4983;42.112;24.738;2023-05-10T13:30:55;3.47;;;3.17;;
9888;SDS011;4983;42.112;24.738;2023-05-10T13:33:22;3.63;;;3.33;;
9888;SDS011;4983;42.112;24.738;2023-05-10T13:35:50;6.83;;;3.80;;
9888;SDS011;4983;42.112;24.738;2023-05-10T13:38:17;5.07;;;3.67;;
9888;SDS011;4983;42.112;24.738;2023-05-10T13:40:44;3.67;;;3.37;;
9888;SDS011;4983;42.112;24.738;2023-05-10T13:43:12;4.47;;;3.67;;
9888;SDS011;4983;42.112;24.738;2023-05-10T13:45:39;3.70;;;3.40;;
9888;SDS011;4983;42.112;24.738;2023-05-10T13:48:06;4.97;;;3.70;;
9888;SDS011;4983;42.112;24.738;2023-05-10T13:50:34;3.93;;;3.23;;
9888;SDS011;4983;42.112;24.738;2023-05-10T13:53:02;3.80;;;3.40;;
9888;SDS011;4983;42.112;24.738;2023-05-10T13:55:29;4.50;;;3.83;;
9888;SDS011;4983;42.112;24.738;2023-05-10T13:57:56;6.07;;;4.03;;
9888;SDS011;4983;42.112;24.738;2023-05-10T14:00:23;4.57;;;4.17;;
9888;SDS011;4983;42.112;24.738;2023-05-10T14:02:50;4.33;;;3.77;;
9888;SDS011;4983;42.112;24.738;2023-05-10T14:05:17;5.60;;;3.80;;
9888;SDS011;4983;42.112;24.738;2023-05-10T14:07:44;4.57;;;4.10;;
9888;SDS011;4983;42.112;24.738;2023-05-10T14:10:12;7.00;;;4.70;;
9888;SDS011;4983;42.112;24.738;2023-05-10T14:12:39;4.80;;;4.17;;
9888;SDS011;4983;42.112;24.738;2023-05-10T14:15:07;5.30;;;4.10;;
9888;SDS011;4983;42.112;24.738;2023-05-10T14:17:36;3.97;;;3.60;;
9888;SDS011;4983;42.112;24.738;2023-05-10T14:20:03;3.10;;;2.80;;
9888;SDS011;4983;42.112;24.738;2023-05-10T14:22:32;4.10;;;3.40;;
9888;SDS011;4983;42.112;24.738;2023-05-10T14:24:58;4.10;;;3.30;;
9888;SDS011;4983;42.112;24.738;2023-05-10T14:27:26;10.03;;;4.30;;
9888;SDS011;4983;42.112;24.738;2023-05-10T14:29:53;4.70;;;3.40;;
9888;SDS011;4983;42.112;24.738;2023-05-10T14:32:20;4.87;;;3.30;;
9888;SDS011;4983;42.112;24.738;2023-05-10T14:34:47;3.97;;;3.00;;
9888;SDS011;4983;42.112;24.738;2023-05-10T14:37:13;3.47;;;3.17;;
9888;SDS011;4983;42.112;24.738;2023-05-10T14:39:40;3.70;;;3.07;;
9888;SDS011;4983;42.112;24.738;2023-05-10T14:42:07;4.40;;;3.50;;
9888;SDS011;4983;42.112;24.738;2023-05-10T14:44:35;3.70;;;3.40;;
9888;SDS011;4983;42.112;24.738;2023-05-10T14:47:02;5.23;;;3.67;;
9888;SDS011;4983;42.112;24.738;2023-05-10T14:49:29;4.63;;;3.57;;
9888;SDS011;4983;42.112;24.738;2023-05-10T14:51:56;3.87;;;3.37;;
9888;SDS011;4983;42.112;24.738;2023-05-10T14:54:23;3.83;;;2.97;;
9888;SDS011;4983;42.112;24.738;2023-05-10T14:56:50;3.63;;;2.90;;
9888;SDS011;4983;42.112;24.738;2023-05-10T14:59:17;3.20;;;2.90;;
9888;SDS011;4983;42.112;24.738;2023-05-10T15:01:45;2.70;;;2.50;;
9888;SDS011;4983;42.112;24.738;2023-05-10T15:04:13;4.50;;;3.27;;
9888;SDS011;4983;42.112;24.738;2023-05-10T15:06:42;4.90;;;2.53;;
9888;SDS011;4983;42.112;24.738;2023-05-10T15:09:08;3.13;;;2.90;;
9888;SDS011;4983;42.112;24.738;2023-05-10T15:11:36;4.57;;;3.87;;